Terminal Aerodrome Forecast
Issued by NWS

Home | Current Version | Previous Version | Text Only | Print | Product List | Glossary On
Versions: 1 2 3 4 5 6 7 8 9 10 11 12 13 14 15 16 17 18 19
000
FTUS46 KSEW 231100
TAFOLM
TAF
KOLM 231132Z 2312/2412 19008KT P6SM SCT020 BKN040 BKN060
      TEMPO 2312/2316 5SM -SHRA
     FM231900 21008KT P6SM -SHRA BKN030 OVC050
     FM232300 21008KT P6SM -SHRA SCT025 BKN040 BKN070=

USA.gov is the U.S. government's official web portal to all federal, state and local government web resources and services.